createdAt,value
2019-03-04T00:01:28.949Z,98040.94
2019-03-04T00:03:57.195Z,98049.92
2019-03-04T00:06:25.445Z,98042.13
2019-03-04T00:08:53.693Z,98022.72
2019-03-04T00:11:22.171Z,98025.27
2019-03-04T00:13:50.428Z,98015.28
2019-03-04T00:16:18.663Z,98016.92
2019-03-04T00:18:46.898Z,98019.90
2019-03-04T00:21:15.410Z,98010.45
2019-03-04T00:23:43.653Z,98003.16
2019-03-04T00:26:11.898Z,97994.59
2019-03-04T00:28:40.445Z,97998.45
2019-03-04T00:31:08.693Z,97992.03
2019-03-04T00:33:37.412Z,97988.16
2019-03-04T00:36:05.893Z,97987.81
2019-03-04T00:38:34.152Z,97990.07
2019-03-04T00:41:02.867Z,97997.40
2019-03-04T00:43:31.382Z,97992.21
2019-03-04T00:45:59.586Z,97986.19
2019-03-04T00:48:28.096Z,97987.91
2019-03-04T00:50:56.583Z,97975.01
2019-03-04T00:53:24.825Z,97970.34
2019-03-04T00:55:53.072Z,97973.77
2019-03-04T00:58:21.621Z,97973.34
2019-03-04T01:00:50.117Z,97979.73
2019-03-04T01:03:18.347Z,97973.28
2019-03-04T01:05:46.591Z,97963.41
2019-03-04T01:08:14.901Z,97962.58
2019-03-04T01:10:43.168Z,97963.44
2019-03-04T01:13:11.691Z,97954.78
2019-03-04T01:15:39.932Z,97968.93
2019-03-04T01:18:08.180Z,97977.59
2019-03-04T01:20:36.427Z,97969.80
2019-03-04T01:23:04.905Z,97955.04
2019-03-04T01:25:33.148Z,97951.66
2019-03-04T01:28:01.625Z,97940.36
2019-03-04T01:30:49.206Z,97939.89
2019-03-04T01:33:17.437Z,97932.88
2019-03-04T01:35:45.928Z,97922.16
2019-03-04T01:38:14.180Z,97919.63
2019-03-04T01:40:42.413Z,97904.28
2019-03-04T01:43:10.670Z,97891.37
2019-03-04T01:45:38.903Z,97873.33
2019-03-04T01:48:07.146Z,97872.51
2019-03-04T01:50:35.607Z,97879.34
2019-03-04T01:53:04.070Z,97874.56
2019-03-04T01:55:32.321Z,97874.13
2019-03-04T01:58:00.559Z,97868.97
2019-03-04T02:00:29.104Z,97869.02
2019-03-04T02:02:57.480Z,97857.45
2019-03-04T02:05:25.936Z,97860.49
2019-03-04T02:07:54.175Z,97854.11
2019-03-04T02:10:22.412Z,97857.62
2019-03-04T02:12:50.650Z,97851.19
2019-03-04T02:15:21.807Z,97846.53
2019-03-04T02:17:51.090Z,97834.11
2019-03-04T02:20:19.496Z,97836.73
2019-03-04T02:22:48.004Z,97832.52
2019-03-04T02:25:37.084Z,97825.24
2019-03-04T02:28:05.323Z,97825.72
2019-03-04T02:30:33.563Z,97821.87
2019-03-04T02:33:02.032Z,97821.17
2019-03-04T02:35:30.264Z,97803.61
2019-03-04T02:37:58.500Z,97816.48
2019-03-04T02:40:26.963Z,97801.08
2019-03-04T02:42:55.204Z,97798.09
2019-03-04T02:45:23.455Z,97790.44
2019-03-04T02:47:51.700Z,97791.44
2019-03-04T02:50:19.922Z,97788.91
2019-03-04T02:52:48.159Z,97784.11
2019-03-04T02:55:17.112Z,97778.48
2019-03-04T02:57:45.405Z,97777.62
2019-03-04T03:00:18.693Z,97777.20
2019-03-04T03:02:46.931Z,97773.73
2019-03-04T03:05:15.236Z,97775.00
2019-03-04T03:07:43.479Z,97758.23
2019-03-04T03:10:13.432Z,97732.84
2019-03-04T03:12:41.920Z,97731.09
2019-03-04T03:15:12.648Z,97718.20
2019-03-04T03:17:41.135Z,97713.02
2019-03-04T03:20:11.866Z,97716.48
2019-03-04T03:22:40.181Z,97714.77
2019-03-04T03:25:09.883Z,97711.79
2019-03-04T03:27:38.139Z,97718.23
2019-03-04T03:30:11.855Z,97716.09
2019-03-04T03:32:40.145Z,97704.88
2019-03-04T03:35:09.668Z,97711.79
2019-03-04T03:37:38.101Z,97686.41
2019-03-04T03:40:12.190Z,97674.38
2019-03-04T03:42:40.723Z,97662.75
2019-03-04T03:45:10.141Z,97654.16
2019-03-04T03:47:38.612Z,97661.02
2019-03-04T03:50:09.355Z,97662.73
2019-03-04T03:52:37.815Z,97675.63
2019-03-04T03:55:11.360Z,97660.16
2019-03-04T03:57:39.769Z,97681.67
2019-03-04T04:00:17.293Z,97683.83
2019-03-04T04:02:45.522Z,97652.02
2019-03-04T04:05:13.792Z,97657.14
2019-03-04T04:07:42.100Z,97655.39
2019-03-04T04:10:15.239Z,97643.36
2019-03-04T04:12:43.733Z,97648.88
2019-03-04T04:15:13.326Z,97662.96
2019-03-04T04:17:41.550Z,97654.36
2019-03-04T04:20:10.726Z,97645.31
2019-03-04T04:22:38.958Z,97645.30
2019-03-04T04:25:08.338Z,97647.88
2019-03-04T04:27:36.564Z,97630.72
2019-03-04T04:30:13.084Z,97631.57
2019-03-04T04:32:41.318Z,97627.72
2019-03-04T04:35:09.728Z,97620.81
2019-03-04T04:37:38.184Z,97616.55
2019-03-04T04:40:09.603Z,97613.10
2019-03-04T04:42:38.073Z,97611.80
2019-03-04T04:45:07.885Z,97610.95
2019-03-04T04:47:36.824Z,97615.22
2019-03-04T04:50:17.397Z,97601.45
2019-03-04T04:52:45.885Z,97593.29
2019-03-04T04:55:14.363Z,97594.97
2019-03-04T04:57:42.610Z,97594.54
2019-03-04T05:00:18.178Z,97591.11
2019-03-04T05:02:46.398Z,97585.49
2019-03-04T05:05:14.809Z,97581.60
2019-03-04T05:07:43.329Z,97565.68
2019-03-04T05:10:21.612Z,97555.81
2019-03-04T05:12:50.074Z,97535.18
2019-03-04T05:15:18.348Z,97533.86
2019-03-04T05:17:46.597Z,97524.41
2019-03-04T05:20:22.771Z,97494.34
2019-03-04T05:22:51.006Z,97487.94
2019-03-04T05:25:19.245Z,97483.17
2019-03-04T05:27:47.476Z,97469.84
2019-03-04T05:30:20.176Z,97469.87
2019-03-04T05:32:48.418Z,97474.59
2019-03-04T05:35:16.658Z,97466.86
2019-03-04T05:37:44.889Z,97454.86
2019-03-04T05:40:16.313Z,97422.23
2019-03-04T05:42:44.530Z,97389.18
2019-03-04T05:45:19.359Z,97389.58
2019-03-04T05:47:47.815Z,97389.54
2019-03-04T05:50:20.657Z,97380.54
2019-03-04T05:52:49.114Z,97393.38
2019-03-04T05:55:17.589Z,97391.20
2019-03-04T05:57:45.820Z,97381.31
2019-03-04T06:00:19.697Z,97391.55
2019-03-04T06:02:48.867Z,97398.42
2019-03-04T06:05:17.361Z,97422.88
2019-03-04T06:07:52.990Z,97442.19
2019-03-04T06:10:21.230Z,97456.80
2019-03-04T06:12:49.473Z,97423.35
2019-03-04T06:15:19.575Z,97430.70
2019-03-04T06:17:47.804Z,97390.41
2019-03-04T06:20:17.998Z,97408.84
2019-03-04T06:22:46.225Z,97401.98
2019-03-04T06:25:16.607Z,97402.84
2019-03-04T06:27:45.060Z,97419.58
2019-03-04T06:30:16.142Z,97429.88
2019-03-04T06:32:44.372Z,97398.93
2019-03-04T06:35:13.855Z,97389.08
2019-03-04T06:37:42.084Z,97389.48
2019-03-04T06:40:15.171Z,97361.16
2019-03-04T06:42:43.402Z,97398.46
2019-03-04T06:45:16.432Z,97400.13
2019-03-04T06:47:44.879Z,97364.53
2019-03-04T06:50:47.089Z,97349.06
2019-03-04T06:53:36.562Z,97372.23
2019-03-04T06:56:22.771Z,97324.17
2019-03-04T06:59:05.923Z,97326.30
2019-03-04T07:01:52.440Z,97307.84
2019-03-04T07:04:26.698Z,97285.56
2019-03-04T07:06:54.993Z,97265.41
2019-03-04T07:09:23.550Z,97192.95
2019-03-04T07:11:51.794Z,97199.83
2019-03-04T07:14:20.027Z,97266.29
2019-03-04T07:16:48.268Z,97256.02
2019-03-04T07:19:17.268Z,97304.95
2019-03-04T07:21:45.511Z,97263.37
2019-03-04T07:24:13.736Z,97193.88
2019-03-04T07:26:41.972Z,97236.38
2019-03-04T07:29:10.209Z,97209.78
2019-03-04T07:31:38.477Z,97257.42
2019-03-04T07:34:06.713Z,97224.39
2019-03-04T07:36:35.215Z,97248.45
2019-03-04T07:39:05.495Z,97245.00
2019-03-04T07:41:34.021Z,97254.45
2019-03-04T07:44:02.270Z,97240.29
2019-03-04T07:46:30.716Z,97243.73
2019-03-04T07:48:59.260Z,97254.48
2019-03-04T07:51:27.514Z,97234.69
2019-03-04T07:53:55.858Z,97227.39
2019-03-04T07:56:24.092Z,97176.28
2019-03-04T07:58:52.336Z,97204.21
2019-03-04T08:01:20.571Z,97209.80
2019-03-04T08:03:48.816Z,97210.23
2019-03-04T08:06:17.047Z,97210.63
2019-03-04T08:09:04.147Z,97205.47
2019-03-04T08:12:03.916Z,97177.96
2019-03-04T08:14:32.421Z,97241.54
2019-03-04T08:17:00.651Z,97237.23
2019-03-04T08:19:29.175Z,97238.53
2019-03-04T08:21:57.660Z,97225.59
2019-03-04T08:24:25.904Z,97226.88
2019-03-04T08:26:54.145Z,97226.02
2019-03-04T08:29:22.638Z,97233.75
2019-03-04T08:31:50.872Z,97230.31
2019-03-04T08:34:19.147Z,97225.55
2019-03-04T08:36:47.627Z,97254.35
2019-03-04T08:39:16.317Z,97241.02
2019-03-04T08:41:44.904Z,97263.38
2019-03-04T08:44:13.145Z,97273.66
2019-03-04T08:46:41.401Z,97280.98
2019-03-04T08:49:09.644Z,97294.73
2019-03-04T08:51:38.215Z,97290.86
2019-03-04T08:54:06.473Z,97282.69
2019-03-04T08:56:34.976Z,97291.73
2019-03-04T08:59:03.221Z,97318.83
2019-03-04T09:01:31.497Z,97298.61
2019-03-04T09:03:59.739Z,97322.30
2019-03-04T09:06:28.001Z,97308.15
2019-03-04T09:08:56.246Z,97343.41
2019-03-04T09:11:24.717Z,97342.11
2019-03-04T09:13:53.227Z,97361.03
2019-03-04T09:16:21.456Z,97340.82
2019-03-04T09:18:49.702Z,97356.33
2019-03-04T09:21:17.939Z,97370.48
2019-03-04T09:23:46.435Z,97379.11
2019-03-04T09:26:14.921Z,97398.88
2019-03-04T09:28:43.168Z,97378.23
2019-03-04T09:31:11.468Z,97371.36
2019-03-04T09:33:39.635Z,97384.69
2019-03-04T09:36:08.341Z,97390.27
2019-03-04T09:38:36.629Z,97383.39
2019-03-04T09:41:05.199Z,97364.90
2019-03-04T09:43:33.675Z,97356.73
2019-03-04T09:46:01.916Z,97356.73
2019-03-04T09:48:30.170Z,97347.70
2019-03-04T09:50:58.418Z,97378.64
2019-03-04T09:53:26.888Z,97375.21
2019-03-04T09:55:55.127Z,97348.51
2019-03-04T09:58:23.654Z,97366.58
2019-03-04T10:01:07.388Z,97354.50
2019-03-04T10:03:41.443Z,97364.77
2019-03-04T10:06:41.916Z,97340.59
2019-03-04T10:09:31.659Z,97341.79
2019-03-04T10:12:18.122Z,97339.96
2019-03-04T10:15:07.939Z,97327.79
2019-03-04T10:17:36.790Z,97325.22
2019-03-04T10:20:25.862Z,97329.94
2019-03-04T10:23:15.203Z,97320.47
2019-03-04T10:26:03.173Z,97341.61
2019-03-04T10:28:43.632Z,97344.30
2019-03-04T10:31:26.329Z,97333.09
2019-03-04T10:34:09.651Z,97324.05
2019-03-04T10:36:50.188Z,97324.88
2019-03-04T10:39:27.777Z,97313.17
2019-03-04T10:42:19.898Z,97314.86
2019-03-04T10:45:10.879Z,97321.75
2019-03-04T10:47:39.114Z,97342.80
2019-03-04T10:50:09.912Z,97343.31
2019-03-04T10:52:38.151Z,97325.67
2019-03-04T10:55:09.836Z,97316.63
2019-03-04T10:57:38.083Z,97324.97
2019-03-04T11:00:15.405Z,97322.90
2019-03-04T11:02:43.667Z,97331.98
2019-03-04T11:05:11.902Z,97345.34
2019-03-04T11:07:40.141Z,97314.84
2019-03-04T11:10:10.632Z,97331.63
2019-03-04T11:12:38.871Z,97347.60
2019-03-04T11:15:26.718Z,97342.06
2019-03-04T11:17:55.016Z,97307.64
2019-03-04T11:20:23.254Z,97362.75
2019-03-04T11:22:51.722Z,97358.05
2019-03-04T11:25:20.222Z,97378.67
2019-03-04T11:27:48.466Z,97341.71
2019-03-04T11:30:20.875Z,97331.40
2019-03-04T11:32:49.437Z,97321.52
2019-03-04T11:35:17.774Z,97330.53
2019-03-04T11:37:46.186Z,97349.42
2019-03-04T11:40:22.194Z,97323.22
2019-03-04T11:42:50.677Z,97317.64
2019-03-04T11:45:19.434Z,97340.41
2019-03-04T11:47:47.680Z,97324.94
2019-03-04T11:50:16.548Z,97322.78
2019-03-04T11:52:45.015Z,97316.80
2019-03-04T11:55:22.227Z,97315.06
2019-03-04T11:57:50.471Z,97303.02
2019-03-04T12:00:43.680Z,97295.25
2019-03-04T12:03:11.947Z,97297.79
2019-03-04T12:05:40.496Z,97277.14
2019-03-04T12:08:08.760Z,97285.31
2019-03-04T12:10:37.156Z,97296.50
2019-03-04T12:13:06.423Z,97253.48
2019-03-04T12:15:34.660Z,97299.08
2019-03-04T12:18:03.084Z,97284.06
2019-03-04T12:20:31.573Z,97292.63
2019-03-04T12:22:59.812Z,97295.21
2019-03-04T12:25:28.053Z,97305.96
2019-03-04T12:27:56.338Z,97293.02
2019-03-04T12:30:25.845Z,97300.33
2019-03-04T12:32:54.657Z,97307.20
2019-03-04T12:35:23.296Z,97296.84
2019-03-04T12:37:51.768Z,97280.91
2019-03-04T12:40:23.721Z,97299.41
2019-03-04T12:42:52.300Z,97289.09
2019-03-04T12:45:22.407Z,97286.98
2019-03-04T12:47:50.724Z,97255.16
2019-03-04T12:50:29.833Z,97271.98
2019-03-04T12:52:58.611Z,97270.70
2019-03-04T12:55:27.069Z,97284.92
2019-03-04T12:57:55.318Z,97281.92
2019-03-04T13:00:30.824Z,97278.91
2019-03-04T13:02:59.384Z,97272.06
2019-03-04T13:05:28.035Z,97247.98
2019-03-04T13:07:56.269Z,97287.98
2019-03-04T13:10:24.847Z,97316.34
2019-03-04T13:12:53.092Z,97339.56
2019-03-04T13:15:35.131Z,97328.36
2019-03-04T13:18:05.904Z,97357.97
2019-03-04T13:20:35.760Z,97340.33
2019-03-04T13:23:04.413Z,97357.33
2019-03-04T13:25:32.631Z,97351.91
2019-03-04T13:28:08.327Z,97363.20
2019-03-04T13:30:33.181Z,97374.21
2019-03-04T13:33:01.416Z,97371.95
2019-03-04T13:35:32.251Z,97381.21
2019-03-04T13:38:00.558Z,97366.94
2019-03-04T13:40:31.511Z,97358.67
2019-03-04T13:42:59.748Z,97337.62
2019-03-04T13:45:29.093Z,97352.53
2019-03-04T13:47:57.402Z,97354.61
2019-03-04T13:50:31.964Z,97346.89
2019-03-04T13:53:00.430Z,97354.04
2019-03-04T13:55:28.661Z,97358.31
2019-03-04T13:57:56.908Z,97354.84
2019-03-04T14:00:33.664Z,97380.38
2019-03-04T14:03:02.182Z,97399.09
2019-03-04T14:05:30.425Z,97411.50
2019-03-04T14:07:58.975Z,97411.16
2019-03-04T14:10:42.689Z,97420.59
2019-03-04T14:13:10.924Z,97423.25
2019-03-04T14:15:44.164Z,97420.28
2019-03-04T14:18:12.635Z,97423.82
2019-03-04T14:20:41.136Z,97410.13
2019-03-04T14:23:09.356Z,97406.77
2019-03-04T14:25:37.595Z,97392.63
2019-03-04T14:28:05.835Z,97388.73
2019-03-04T14:30:34.080Z,97390.96
2019-03-04T14:33:02.299Z,97390.14
2019-03-04T14:35:30.526Z,97388.84
2019-03-04T14:37:59.059Z,97385.86
2019-03-04T14:40:27.304Z,97373.44
2019-03-04T14:42:55.819Z,97369.55
2019-03-04T14:45:27.673Z,97371.19
2019-03-04T14:47:56.201Z,97400.97
2019-03-04T14:50:24.666Z,97401.19
2019-03-04T14:52:53.196Z,97446.83
2019-03-04T14:55:23.195Z,97472.66
2019-03-04T14:57:51.433Z,97485.70
2019-03-04T15:00:24.042Z,97522.47
2019-03-04T15:02:52.260Z,97555.77
2019-03-04T15:05:20.714Z,97578.12
2019-03-04T15:07:48.946Z,97577.09
2019-03-04T15:10:17.408Z,97575.20
2019-03-04T15:12:45.638Z,97615.80
2019-03-04T15:15:19.898Z,97616.58
2019-03-04T15:17:48.353Z,97606.33
2019-03-04T15:20:19.539Z,97576.88
2019-03-04T15:22:48.328Z,97567.16
2019-03-04T15:25:22.907Z,97566.09
2019-03-04T15:27:51.135Z,97566.83
2019-03-04T15:30:19.380Z,97572.03
2019-03-04T15:32:47.597Z,97573.42
2019-03-04T15:35:15.846Z,97573.47
2019-03-04T15:37:44.426Z,97573.59
2019-03-04T15:40:14.386Z,97578.34
2019-03-04T15:42:42.664Z,97569.92
2019-03-04T15:45:13.379Z,97556.52
2019-03-04T15:47:42.870Z,97590.45
2019-03-04T15:50:11.823Z,97616.86
2019-03-04T15:52:40.395Z,97618.67
2019-03-04T15:55:10.897Z,97588.48
2019-03-04T15:57:39.129Z,97636.08
2019-03-04T16:00:13.492Z,97640.13
2019-03-04T16:02:41.791Z,97645.77
2019-03-04T16:05:12.794Z,97675.16
2019-03-04T16:07:41.047Z,97666.20
2019-03-04T16:10:12.446Z,97682.88
2019-03-04T16:12:41.037Z,97683.33
2019-03-04T16:15:12.310Z,97687.08
2019-03-04T16:17:40.819Z,97690.02
2019-03-04T16:20:16.279Z,97707.55
2019-03-04T16:22:45.204Z,97703.26
2019-03-04T16:25:14.485Z,97716.05
2019-03-04T16:27:42.786Z,97717.33
2019-03-04T16:30:13.574Z,97721.99
2019-03-04T16:32:41.905Z,97727.07
2019-03-04T16:35:10.137Z,97727.85
2019-03-04T16:37:38.640Z,97736.44
2019-03-04T16:40:15.347Z,97741.14
2019-03-04T16:42:43.725Z,97760.78
2019-03-04T16:45:19.389Z,97771.34
2019-03-04T16:47:47.623Z,97757.69
2019-03-04T16:50:24.143Z,97785.32
2019-03-04T16:53:04.447Z,97790.80
2019-03-04T16:55:32.931Z,97803.37
2019-03-04T16:58:01.411Z,97808.16
2019-03-04T17:00:29.680Z,97808.58
2019-03-04T17:02:58.274Z,97822.64
2019-03-04T17:05:27.570Z,97827.58
2019-03-04T17:07:55.860Z,97824.80
2019-03-04T17:10:25.656Z,97828.58
2019-03-04T17:12:54.617Z,97829.81
2019-03-04T17:15:23.786Z,97826.89
2019-03-04T17:17:52.235Z,97847.45
2019-03-04T17:20:20.938Z,97843.61
2019-03-04T17:22:49.444Z,97871.90
2019-03-04T17:25:19.011Z,97862.06
2019-03-04T17:27:47.598Z,97862.48
2019-03-04T17:30:17.769Z,97882.39
2019-03-04T17:32:46.011Z,97893.72
2019-03-04T17:35:16.842Z,97894.17
2019-03-04T17:37:45.094Z,97899.20
2019-03-04T17:40:15.735Z,97902.63
2019-03-04T17:42:43.967Z,97904.06
2019-03-04T17:45:20.895Z,97908.62
2019-03-04T17:47:49.480Z,97912.86
2019-03-04T17:50:35.619Z,97915.36
2019-03-04T17:53:06.121Z,97919.55
2019-03-04T17:55:34.421Z,97923.24
2019-03-04T17:58:02.662Z,97937.66
2019-03-04T18:00:30.960Z,97931.27
2019-03-04T18:02:59.191Z,97938.48
2019-03-04T18:05:27.459Z,97948.30
2019-03-04T18:07:55.677Z,97951.36
2019-03-04T18:10:24.257Z,97967.48
2019-03-04T18:12:54.923Z,97967.16
2019-03-04T18:15:25.742Z,97970.69
2019-03-04T18:17:53.970Z,97978.83
2019-03-04T18:20:22.436Z,97983.19
2019-03-04T18:22:50.893Z,97981.14
2019-03-04T18:25:28.365Z,97989.83
2019-03-04T18:28:11.886Z,97997.66
2019-03-04T18:30:54.925Z,97999.34
2019-03-04T18:33:40.962Z,98001.66
2019-03-04T18:36:33.321Z,98006.00
2019-03-04T18:39:19.942Z,98015.47
2019-03-04T18:42:13.816Z,98021.91
2019-03-04T18:44:45.226Z,98020.75
2019-03-04T18:47:25.534Z,98019.47
2019-03-04T18:49:53.772Z,98021.09
2019-03-04T18:52:22.004Z,98037.33
2019-03-04T18:54:50.583Z,98036.34
2019-03-04T18:57:18.811Z,98047.34
2019-03-04T18:59:47.053Z,98040.48
2019-03-04T19:02:15.610Z,98046.42
2019-03-04T19:04:44.074Z,98054.91
2019-03-04T19:07:12.304Z,98063.41
2019-03-04T19:09:40.764Z,98069.44
2019-03-04T19:12:08.993Z,98074.51
2019-03-04T19:14:37.230Z,98079.87
2019-03-04T19:17:07.771Z,98073.84
2019-03-04T19:19:35.472Z,98079.55
2019-03-04T19:22:03.918Z,98080.92
2019-03-04T19:24:32.379Z,98082.30
2019-03-04T19:27:00.693Z,98088.34
2019-03-04T19:29:29.162Z,98084.91
2019-03-04T19:31:57.398Z,98083.69
2019-03-04T19:34:25.631Z,98097.30
2019-03-04T19:36:53.871Z,98096.22
2019-03-04T19:39:22.117Z,98100.98
2019-03-04T19:41:50.627Z,98114.13
2019-03-04T19:44:18.858Z,98113.31
2019-03-04T19:46:47.372Z,98113.72
2019-03-04T19:49:15.590Z,98130.05
2019-03-04T19:51:43.848Z,98133.89
2019-03-04T19:54:12.654Z,98130.81
2019-03-04T19:56:40.914Z,98129.89
2019-03-04T19:59:09.151Z,98135.42
2019-03-04T20:01:37.392Z,98141.02
2019-03-04T20:04:06.022Z,98140.89
2019-03-04T20:06:34.258Z,98148.19
2019-03-04T20:09:02.783Z,98152.54
2019-03-04T20:11:31.091Z,98143.08
2019-03-04T20:13:59.323Z,98150.17
2019-03-04T20:16:27.560Z,98152.02
2019-03-04T20:18:55.791Z,98149.28
2019-03-04T20:21:24.273Z,98154.69
2019-03-04T20:23:52.764Z,98147.56
2019-03-04T20:26:21.003Z,98141.09
2019-03-04T20:28:49.311Z,98148.08
2019-03-04T20:31:17.790Z,98152.53
2019-03-04T20:33:46.318Z,98151.79
2019-03-04T20:36:14.575Z,98156.73
2019-03-04T20:38:45.520Z,98151.83
2019-03-04T20:41:13.758Z,98148.17
2019-03-04T20:43:41.984Z,98145.69
2019-03-04T20:46:10.216Z,98141.05
2019-03-04T20:48:38.481Z,98147.25
2019-03-04T20:51:06.704Z,98148.70
2019-03-04T20:53:35.255Z,98149.77
2019-03-04T20:56:03.487Z,98158.94
2019-03-04T20:58:31.807Z,98158.25
2019-03-04T21:01:00.065Z,98152.55
2019-03-04T21:03:34.837Z,98142.50
2019-03-04T21:05:59.775Z,98154.01
2019-03-04T21:08:28.300Z,98144.70
2019-03-04T21:10:56.795Z,98143.75
2019-03-04T21:13:35.282Z,98154.16
2019-03-04T21:15:56.551Z,98152.34
2019-03-04T21:18:24.821Z,98143.88
2019-03-04T21:20:53.413Z,98145.90
2019-03-04T21:23:21.699Z,98142.08
2019-03-04T21:26:01.903Z,98140.22
2019-03-04T21:28:42.071Z,98138.43
2019-03-04T21:31:39.627Z,98133.45
2019-03-04T21:34:11.518Z,98137.91
2019-03-04T21:37:04.119Z,98140.52
2019-03-04T21:39:37.325Z,98154.11
2019-03-04T21:42:15.384Z,98155.50
2019-03-04T21:44:49.502Z,98161.78
2019-03-04T21:47:27.498Z,98162.30
2019-03-04T21:49:55.741Z,98153.18
2019-03-04T21:52:33.333Z,98160.55
2019-03-04T21:55:03.696Z,98171.27
2019-03-04T21:57:34.877Z,98184.51
2019-03-04T22:00:05.167Z,98184.92
2019-03-04T22:02:36.578Z,98187.45
2019-03-04T22:05:13.661Z,98180.66
2019-03-04T22:07:42.389Z,98175.42
2019-03-04T22:10:12.683Z,98173.98
2019-03-04T22:12:40.911Z,98172.05
2019-03-04T22:15:09.782Z,98180.07
2019-03-04T22:17:38.325Z,98182.52
2019-03-04T22:20:10.012Z,98191.80
2019-03-04T22:22:38.323Z,98198.25
2019-03-04T22:25:09.435Z,98198.25
2019-03-04T22:27:37.985Z,98192.63
2019-03-04T22:30:11.941Z,98198.72
2019-03-04T22:32:40.464Z,98183.97
2019-03-04T22:35:11.865Z,98196.98
2019-03-04T22:37:40.093Z,98195.35
2019-03-04T22:40:23.663Z,98193.90
2019-03-04T22:42:51.895Z,98188.91
2019-03-04T22:45:21.395Z,98191.45
2019-03-04T22:47:50.981Z,98185.65
2019-03-04T22:50:20.989Z,98184.84
2019-03-04T22:52:49.321Z,98194.25
2019-03-04T22:55:20.741Z,98193.17
2019-03-04T22:57:48.974Z,98199.45
2019-03-04T23:00:43.542Z,98200.31
2019-03-04T23:03:12.114Z,98207.86
2019-03-04T23:05:40.350Z,98208.73
2019-03-04T23:08:08.895Z,98206.41
2019-03-04T23:10:40.240Z,98219.56
2019-03-04T23:13:24.205Z,98225.30
2019-03-04T23:15:54.037Z,98222.85
2019-03-04T23:18:22.253Z,98222.82
2019-03-04T23:20:50.486Z,98251.20
2019-03-04T23:23:18.713Z,98249.64
2019-03-04T23:25:46.982Z,98248.98
2019-03-04T23:28:15.488Z,98258.39
2019-03-04T23:30:43.752Z,98249.64
2019-03-04T23:33:12.244Z,98259.08
2019-03-04T23:35:40.723Z,98261.34
2019-03-04T23:38:08.961Z,98260.47
2019-03-04T23:40:37.198Z,98277.47
2019-03-04T23:43:05.441Z,98267.38
2019-03-04T23:45:33.690Z,98267.56
2019-03-04T23:48:01.918Z,98270.46
2019-03-04T23:50:30.156Z,98261.11
2019-03-04T23:52:58.683Z,98256.69
2019-03-04T23:55:27.457Z,98259.97
2019-03-04T23:57:55.685Z,98253.41
